createdAt,value
2022-12-17T00:02:45.026Z,21.41
2022-12-17T00:08:05.428Z,21.39
2022-12-17T00:13:37.118Z,21.42
2022-12-17T00:18:59.123Z,21.39
2022-12-17T00:24:19.241Z,21.32
2022-12-17T00:29:39.694Z,21.32
2022-12-17T00:35:01.156Z,21.32
2022-12-17T00:40:22.405Z,21.31
2022-12-17T00:45:42.760Z,21.29
2022-12-17T00:51:04.275Z,21.26
2022-12-17T00:56:24.736Z,21.27
2022-12-17T01:01:45.058Z,21.25
2022-12-17T01:07:06.711Z,21.25
2022-12-17T01:12:26.897Z,21.24
2022-12-17T01:17:47.931Z,21.23
2022-12-17T01:23:09.728Z,21.24
2022-12-17T01:28:29.915Z,21.23
2022-12-17T01:33:49.911Z,21.21
2022-12-17T01:39:11.454Z,21.20
2022-12-17T01:45:05.704Z,21.09
2022-12-17T01:50:26.878Z,21.21
2022-12-17T01:55:48.325Z,21.13
2022-12-17T02:01:08.895Z,21.13
2022-12-17T02:06:36.574Z,21.22
2022-12-17T02:12:09.745Z,21.14
2022-12-17T02:17:36.420Z,21.44
2022-12-17T02:23:09.888Z,21.54
2022-12-17T02:28:46.304Z,21.58
2022-12-17T02:34:07.281Z,21.61
2022-12-17T02:39:27.408Z,21.67
2022-12-17T02:44:50.783Z,21.69
2022-12-17T02:50:11.631Z,21.75
2022-12-17T02:55:32.132Z,21.75
2022-12-17T03:00:54.031Z,21.74
2022-12-17T03:06:14.546Z,21.76
2022-12-17T03:11:43.086Z,21.77
2022-12-17T03:17:04.577Z,21.78
2022-12-17T03:22:25.109Z,21.79
2022-12-17T03:27:45.323Z,21.78
2022-12-17T03:33:06.809Z,21.80
2022-12-17T03:38:28.395Z,21.80
2022-12-17T03:43:48.458Z,21.81
2022-12-17T03:49:09.979Z,21.84
2022-12-17T03:54:29.950Z,21.84
2022-12-17T03:59:50.409Z,21.78
2022-12-17T04:05:16.582Z,21.82
2022-12-17T04:10:40.171Z,21.78
2022-12-17T04:16:00.913Z,21.54
2022-12-17T04:21:23.237Z,21.07
2022-12-17T04:26:39.887Z,20.89
2022-12-17T04:32:14.469Z,20.70
2022-12-17T04:37:35.965Z,20.45
2022-12-17T04:42:56.005Z,20.18
2022-12-17T04:48:20.870Z,20.03
2022-12-17T04:53:42.833Z,19.97
2022-12-17T04:59:03.292Z,19.83
2022-12-17T05:04:24.031Z,19.72
2022-12-17T05:09:45.891Z,19.63
2022-12-17T05:15:06.113Z,19.58
2022-12-17T05:20:27.041Z,19.48
2022-12-17T05:25:48.940Z,19.39
2022-12-17T05:31:10.550Z,19.32
2022-12-17T05:36:31.053Z,19.34
2022-12-17T05:41:52.918Z,19.22
2022-12-17T05:47:13.048Z,19.20
2022-12-17T05:52:33.681Z,19.15
2022-12-17T05:57:56.758Z,19.09
2022-12-17T06:03:18.452Z,19.04
2022-12-17T06:08:38.971Z,19.01
2022-12-17T06:14:00.470Z,18.96
2022-12-17T06:19:20.862Z,18.94
2022-12-17T06:24:45.704Z,18.87
2022-12-17T06:30:07.943Z,18.84
2022-12-17T06:35:28.003Z,18.79
2022-12-17T06:40:48.580Z,18.80
2022-12-17T06:46:11.622Z,18.76
2022-12-17T06:51:31.913Z,18.74
2022-12-17T06:56:52.332Z,18.69
2022-12-17T07:02:13.941Z,18.71
2022-12-17T07:07:34.268Z,18.70
2022-12-17T07:12:54.297Z,18.67
2022-12-17T07:18:17.820Z,18.61
2022-12-17T07:23:38.406Z,18.57
2022-12-17T07:28:59.046Z,18.55
2022-12-17T07:34:20.724Z,18.48
2022-12-17T07:39:40.934Z,18.49
2022-12-17T07:45:01.246Z,18.44
2022-12-17T07:50:19.900Z,18.39
2022-12-17T07:55:42.863Z,18.38
2022-12-17T08:01:03.062Z,18.43
2022-12-17T08:06:25.241Z,18.61
2022-12-17T08:11:45.276Z,16.99
2022-12-17T08:17:05.549Z,18.27
2022-12-17T08:22:26.984Z,18.44
2022-12-17T08:27:47.560Z,18.45
2022-12-17T08:33:07.724Z,18.63
2022-12-17T08:38:29.232Z,18.58
2022-12-17T08:43:49.821Z,18.75
2022-12-17T08:49:10.027Z,19.03
2022-12-17T08:54:31.835Z,19.36
2022-12-17T09:00:06.481Z,19.27
2022-12-17T09:05:28.347Z,19.37
2022-12-17T09:10:49.963Z,19.40
2022-12-17T09:16:11.429Z,19.47
2022-12-17T09:21:31.941Z,19.52
2022-12-17T09:26:53.946Z,19.54
2022-12-17T09:32:13.987Z,19.57
2022-12-17T09:37:34.182Z,19.46
2022-12-17T09:43:03.734Z,19.55
2022-12-17T09:48:32.698Z,19.59
2022-12-17T09:53:57.114Z,19.60
2022-12-17T09:59:18.985Z,19.60
2022-12-17T10:04:48.712Z,19.62
2022-12-17T10:10:10.316Z,19.68
2022-12-17T10:15:34.858Z,19.67
2022-12-17T10:21:01.672Z,19.67
2022-12-17T10:26:36.743Z,19.64
2022-12-17T10:31:58.263Z,19.58
2022-12-17T10:37:18.960Z,19.54
2022-12-17T10:42:42.333Z,19.49
2022-12-17T10:48:03.746Z,19.45
2022-12-17T10:53:47.330Z,19.41
2022-12-17T10:59:19.010Z,19.37
2022-12-17T11:04:47.056Z,19.34
2022-12-17T11:10:10.227Z,19.29
2022-12-17T11:15:52.574Z,19.29
2022-12-17T11:21:21.723Z,19.26
2022-12-17T11:26:45.506Z,19.24
2022-12-17T11:32:20.997Z,19.26
2022-12-17T11:37:49.480Z,19.37
2022-12-17T11:43:17.503Z,19.45
2022-12-17T11:48:44.707Z,19.45
2022-12-17T11:54:16.361Z,19.46
2022-12-17T11:59:52.740Z,19.44
2022-12-17T12:05:26.588Z,19.46
2022-12-17T12:10:57.794Z,19.42
2022-12-17T12:16:28.303Z,19.38
2022-12-17T12:21:54.706Z,19.44
2022-12-17T12:27:30.898Z,19.69
2022-12-17T12:32:58.872Z,19.82
2022-12-17T12:38:20.685Z,19.85
2022-12-17T12:43:47.875Z,19.81
2022-12-17T12:49:16.792Z,19.74
2022-12-17T12:54:47.211Z,19.70
2022-12-17T13:00:09.204Z,19.74
2022-12-17T13:05:37.263Z,19.94
2022-12-17T13:10:40.588Z,20.19
2022-12-17T13:15:49.060Z,20.39
2022-12-17T13:21:00.538Z,20.55
2022-12-17T13:26:19.753Z,20.65
2022-12-17T13:31:28.185Z,20.80
2022-12-17T13:36:40.332Z,20.88
2022-12-17T13:41:43.154Z,20.94
2022-12-17T13:46:49.333Z,21.14
2022-12-17T13:52:06.479Z,21.25
2022-12-17T13:57:16.390Z,21.36
2022-12-17T14:02:29.381Z,21.43
2022-12-17T14:07:35.997Z,21.50
2022-12-17T14:12:38.961Z,21.56
2022-12-17T14:17:46.494Z,21.60
2022-12-17T14:22:52.125Z,21.65
2022-12-17T14:27:56.618Z,21.66
2022-12-17T14:33:00.766Z,21.66
2022-12-17T14:38:04.846Z,21.67
2022-12-17T14:43:08.110Z,21.70
2022-12-17T14:48:17.098Z,21.70
2022-12-17T14:53:27.840Z,21.71
2022-12-17T14:58:30.876Z,21.67
2022-12-17T15:03:39.622Z,21.71
2022-12-17T15:08:44.166Z,21.76
2022-12-17T15:13:51.554Z,21.91
2022-12-17T15:19:00.689Z,21.96
2022-12-17T15:24:03.785Z,22.01
2022-12-17T15:29:06.596Z,22.04
2022-12-17T15:34:12.737Z,22.03
2022-12-17T15:39:15.610Z,22.11
2022-12-17T15:44:18.364Z,22.13
2022-12-17T15:49:22.912Z,22.22
2022-12-17T15:54:26.230Z,22.31
2022-12-17T15:59:29.176Z,22.36
2022-12-17T16:04:33.351Z,22.33
2022-12-17T16:09:36.344Z,22.39
2022-12-17T16:14:39.249Z,22.33
2022-12-17T16:19:43.347Z,22.36
2022-12-17T16:24:46.458Z,22.36
2022-12-17T16:29:49.312Z,22.41
2022-12-17T16:34:53.571Z,22.49
2022-12-17T16:39:59.916Z,22.42
2022-12-17T16:45:03.313Z,22.27
2022-12-17T16:50:08.116Z,22.05
2022-12-17T16:55:11.184Z,21.86
2022-12-17T17:00:15.153Z,21.78
2022-12-17T17:05:19.672Z,21.66
2022-12-17T17:10:22.413Z,21.62
2022-12-17T17:15:25.265Z,21.48
2022-12-17T17:20:32.131Z,21.44
2022-12-17T17:25:57.719Z,21.36
2022-12-17T17:31:00.070Z,21.25
2022-12-17T17:36:09.412Z,21.30
2022-12-17T17:41:14.985Z,21.36
2022-12-17T17:46:19.846Z,21.51
2022-12-17T17:51:59.799Z,21.61
2022-12-17T17:56:49.484Z,21.82
2022-12-17T18:01:52.706Z,21.90
2022-12-17T18:12:37.353Z,22.09
2022-12-17T18:17:40.341Z,22.24
2022-12-17T18:22:45.778Z,22.26
2022-12-17T18:27:52.375Z,22.30
2022-12-17T18:32:55.841Z,22.31
2022-12-17T18:38:01.891Z,22.37
2022-12-17T18:43:22.293Z,22.40
2022-12-17T18:48:25.132Z,22.42
2022-12-17T18:53:29.280Z,22.37
2022-12-17T18:58:32.101Z,22.45
2022-12-17T19:03:35.216Z,22.41
2022-12-17T19:08:39.655Z,22.36
2022-12-17T19:13:50.845Z,22.30
2022-12-17T19:18:54.683Z,22.32
2022-12-17T19:24:01.886Z,22.18
2022-12-17T19:29:05.305Z,22.22
2022-12-17T19:34:11.230Z,22.19
2022-12-17T19:39:17.203Z,22.17
2022-12-17T19:44:21.444Z,22.15
2022-12-17T19:49:24.327Z,22.19
2022-12-17T19:54:28.518Z,22.13
2022-12-17T19:59:31.445Z,21.92
2022-12-17T20:04:34.504Z,21.96
2022-12-17T20:09:40.402Z,21.88
2022-12-17T20:14:43.201Z,21.92
2022-12-17T20:19:45.996Z,21.87
2022-12-17T20:24:50.378Z,21.90
2022-12-17T20:29:54.073Z,21.89
2022-12-17T20:34:56.941Z,21.85
2022-12-17T20:40:01.020Z,21.77
2022-12-17T20:45:04.053Z,21.80
2022-12-17T20:50:07.954Z,21.68
2022-12-17T20:55:12.350Z,21.75
2022-12-17T21:00:15.417Z,21.70
2022-12-17T21:05:18.608Z,21.71
2022-12-17T21:10:23.176Z,21.69
2022-12-17T21:15:29.074Z,21.59
2022-12-17T21:20:31.793Z,21.66
2022-12-17T21:25:39.421Z,21.61
2022-12-17T21:30:42.387Z,21.55
2022-12-17T21:35:45.193Z,21.54
2022-12-17T21:40:49.321Z,21.56
2022-12-17T21:45:58.685Z,21.48
2022-12-17T21:51:01.478Z,21.49
2022-12-17T21:56:07.773Z,21.49
2022-12-17T22:01:17.830Z,21.45
2022-12-17T22:06:25.089Z,21.43
2022-12-17T22:11:35.155Z,21.48
2022-12-17T22:16:42.188Z,21.44
2022-12-17T22:21:46.708Z,21.43
2022-12-17T22:26:50.861Z,21.45
2022-12-17T22:32:11.123Z,21.38
2022-12-17T22:41:40.602Z,21.42
2022-12-17T22:44:44.342Z,21.39
2022-12-17T22:48:19.232Z,21.39
2022-12-17T22:53:22.490Z,21.39
2022-12-17T22:58:26.745Z,21.38
2022-12-17T23:03:29.585Z,21.30
2022-12-17T23:08:32.434Z,21.34
2022-12-17T23:13:37.422Z,21.37
2022-12-17T23:18:41.637Z,21.33
2022-12-17T23:23:44.813Z,21.30
2022-12-17T23:28:49.096Z,21.31
2022-12-17T23:33:52.372Z,21.32
2022-12-17T23:38:57.163Z,21.29
2022-12-17T23:44:01.713Z,21.32
2022-12-17T23:49:05.377Z,21.30
2022-12-17T23:54:08.218Z,21.27
2022-12-17T23:59:12.374Z,21.23
